Time;durP1;ratioP1;P1;durP2;ratioP2;P2;SDS_P1;SDS_P2;PMS_P1;PMS_P2;Temp;Humidity;BMP_temperature;BMP_pressure;BME280_temperature;BME280_humidity;BME280_pressure;Samples;Min_cycle;Max_cycle;Signal;HPM_P1;HPM_P2
2020/12/02 00:00:31;;;;;;;17.40;11.00;;;;;;;;;;5099099;28;20044;-78
2020/12/02 00:03:05;;;;;;;23.90;11.73;;;;;;;;;;5099366;28;20036;-78
2020/12/02 00:05:32;;;;;;;18.00;11.15;;;;;;;;;;5099164;28;20115;-78
2020/12/02 00:08:22;;;;;;;18.92;11.32;;;;;;;;;;5099176;28;20111;-78
2020/12/02 00:10:47;;;;;;;20.23;11.50;;;;;;;;;;5099394;28;20500;-79
2020/12/02 00:13:18;;;;;;;16.73;10.93;;;;;;;;;;5099348;28;20028;-78
2020/12/02 00:15:44;;;;;;;18.23;12.18;;;;;;;;;;5099065;28;20032;-79
2020/12/02 00:18:10;;;;;;;17.90;11.57;;;;;;;;;;5100400;28;20130;-80
2020/12/02 00:20:35;;;;;;;15.45;10.23;;;;;;;;;;5100776;28;20028;-79
2020/12/02 00:23:00;;;;;;;16.73;10.57;;;;;;;;;;5100096;28;20093;-79
2020/12/02 00:25:26;;;;;;;17.05;10.88;;;;;;;;;;5099635;28;20061;-79
2020/12/02 00:27:51;;;;;;;26.15;14.00;;;;;;;;;;5088330;28;20097;-79
2020/12/02 00:30:18;;;;;;;26.33;14.48;;;;;;;;;;5078990;28;20032;-78
2020/12/02 00:32:45;;;;;;;29.45;15.43;;;;;;;;;;5078643;28;20393;-78
2020/12/02 00:35:17;;;;;;;33.97;16.63;;;;;;;;;;5078248;28;20040;-78
2020/12/02 00:37:43;;;;;;;30.98;15.50;;;;;;;;;;5079146;28;20056;-78
2020/12/02 00:40:10;;;;;;;28.10;14.90;;;;;;;;;;5079653;28;20051;-78
2020/12/02 00:42:36;;;;;;;24.42;14.32;;;;;;;;;;5078851;28;20032;-78
2020/12/02 00:45:04;;;;;;;23.50;13.30;;;;;;;;;;5077996;28;20036;-78
2020/12/02 00:47:30;;;;;;;21.73;12.25;;;;;;;;;;5078921;28;20036;-78
2020/12/02 00:49:56;;;;;;;22.88;12.40;;;;;;;;;;5078761;28;20025;-78
2020/12/02 00:52:23;;;;;;;17.92;11.18;;;;;;;;;;5078683;28;20056;-78
2020/12/02 00:54:48;;;;;;;22.17;12.00;;;;;;;;;;5078551;28;20028;-80
2020/12/02 00:57:21;;;;;;;19.85;11.63;;;;;;;;;;5076991;28;20027;-78
2020/12/02 00:59:54;;;;;;;20.38;11.65;;;;;;;;;;5078382;28;20414;-76
2020/12/02 01:02:25;;;;;;;19.77;10.93;;;;;;;;;;5077536;28;20032;-78
2020/12/02 01:04:51;;;;;;;21.25;11.20;;;;;;;;;;5077137;28;20524;-78
2020/12/02 01:07:16;;;;;;;16.33;10.93;;;;;;;;;;5075926;28;20017;-78
2020/12/02 01:09:42;;;;;;;15.77;10.18;;;;;;;;;;5077071;28;20040;-78
2020/12/02 01:12:12;;;;;;;15.63;10.20;;;;;;;;;;5077061;28;20074;-78
2020/12/02 01:14:38;;;;;;;14.55;8.80;;;;;;;;;;5077106;28;20036;-78
2020/12/02 01:17:03;;;;;;;15.32;9.88;;;;;;;;;;5077122;28;20051;-79
2020/12/02 01:19:32;;;;;;;16.67;10.57;;;;;;;;;;5076235;28;20044;-78
2020/12/02 01:22:04;;;;;;;14.98;9.98;;;;;;;;;;5078391;28;20037;-78
2020/12/02 01:24:35;;;;;;;17.83;10.13;;;;;;;;;;5078433;28;20036;-78
2020/12/02 01:27:19;;;;;;;16.25;10.52;;;;;;;;;;5078369;28;20036;-79
2020/12/02 01:29:47;;;;;;;15.15;9.90;;;;;;;;;;5077909;28;20051;-78
2020/12/02 01:32:13;;;;;;;19.92;11.98;;;;;;;;;;5078333;28;20036;-78
2020/12/02 01:34:40;;;;;;;14.65;10.02;;;;;;;;;;5076728;28;20044;-78
2020/12/02 01:37:06;;;;;;;14.23;10.00;;;;;;;;;;5077979;28;20051;-78
2020/12/02 01:39:47;;;;;;;15.02;10.10;;;;;;;;;;5077831;28;20040;-78
2020/12/02 01:42:13;;;;;;;18.08;10.60;;;;;;;;;;5077949;28;20032;-78
2020/12/02 01:44:41;;;;;;;16.88;10.70;;;;;;;;;;5077712;28;20033;-78
2020/12/02 01:47:32;;;;;;;18.73;11.50;;;;;;;;;;5077672;28;20088;-78
2020/12/02 01:50:26;;;;;;;18.60;12.30;;;;;;;;;;5092748;28;20043;-78
2020/12/02 01:53:05;;;;;;;20.10;12.05;;;;;;;;;;5117978;28;20050;-79
2020/12/02 01:55:39;;;;;;;21.55;13.18;;;;;;;;;;5118065;28;20086;-78
2020/12/02 01:58:13;;;;;;;18.83;12.00;;;;;;;;;;5117978;28;20039;-78
2020/12/02 02:00:42;;;;;;;18.50;11.90;;;;;;;;;;5117899;28;20078;-78
2020/12/02 02:03:14;;;;;;;20.40;12.77;;;;;;;;;;5117550;28;20039;-79
2020/12/02 02:05:59;;;;;;;19.23;11.82;;;;;;;;;;5117647;28;20043;-78
2020/12/02 02:08:28;;;;;;;16.85;10.80;;;;;;;;;;5117874;28;20408;-78
2020/12/02 02:10:55;;;;;;;16.20;10.57;;;;;;;;;;5116945;28;20034;-79
2020/12/02 02:13:35;;;;;;;18.58;10.48;;;;;;;;;;5117924;28;20039;-79
2020/12/02 02:16:07;;;;;;;17.45;10.82;;;;;;;;;;5117503;28;20394;-79
2020/12/02 02:18:33;;;;;;;18.48;10.68;;;;;;;;;;5116552;28;20043;-79
2020/12/02 02:21:00;;;;;;;15.10;9.73;;;;;;;;;;5098027;28;20378;-79
2020/12/02 02:23:25;;;;;;;18.00;10.80;;;;;;;;;;5087633;28;20036;-78
2020/12/02 02:26:03;;;;;;;16.25;10.27;;;;;;;;;;5078792;28;20044;-79
2020/12/02 02:28:31;;;;;;;20.13;11.85;;;;;;;;;;5078850;28;20032;-79
2020/12/02 02:30:57;;;;;;;21.98;12.82;;;;;;;;;;5077573;28;20115;-79
2020/12/02 02:33:24;;;;;;;27.73;15.35;;;;;;;;;;5078266;28;20067;-79
2020/12/02 02:35:49;;;;;;;25.13;14.50;;;;;;;;;;5077579;28;20044;-80
2020/12/02 02:38:19;;;;;;;26.42;15.30;;;;;;;;;;5081440;28;20040;-80
2020/12/02 02:40:46;;;;;;;23.33;13.88;;;;;;;;;;5083110;28;20060;-80
2020/12/02 02:43:11;;;;;;;21.35;12.48;;;;;;;;;;5080574;28;20043;-80
2020/12/02 02:45:37;;;;;;;21.20;11.45;;;;;;;;;;5082716;28;20032;-80
2020/12/02 02:48:06;;;;;;;20.80;12.13;;;;;;;;;;5081477;28;20044;-79
2020/12/02 02:50:33;;;;;;;17.83;11.38;;;;;;;;;;5086446;28;20076;-80
2020/12/02 02:52:59;;;;;;;19.00;11.27;;;;;;;;;;5102389;28;20095;-79
2020/12/02 02:55:26;;;;;;;21.20;12.20;;;;;;;;;;5102904;28;20051;-80
2020/12/02 02:57:53;;;;;;;23.42;12.48;;;;;;;;;;5102590;28;20048;-79
2020/12/02 03:00:26;;;;;;;16.20;10.57;;;;;;;;;;5100276;28;20167;-79
2020/12/02 03:02:51;;;;;;;19.52;11.60;;;;;;;;;;5101708;28;20032;-79
2020/12/02 03:05:17;;;;;;;15.85;10.45;;;;;;;;;;5100196;28;20547;-79
2020/12/02 03:07:43;;;;;;;16.50;10.45;;;;;;;;;;5100073;28;20078;-79
2020/12/02 03:10:14;;;;;;;22.10;11.38;;;;;;;;;;5100944;28;20024;-80
2020/12/02 03:12:40;;;;;;;18.27;11.80;;;;;;;;;;5099999;28;20087;-79
2020/12/02 03:15:08;;;;;;;19.77;12.43;;;;;;;;;;5094561;28;20035;-78
2020/12/02 03:17:33;;;;;;;18.55;11.43;;;;;;;;;;5092338;28;20039;-77
2020/12/02 03:20:07;;;;;;;18.27;11.00;;;;;;;;;;5093653;28;20039;-78
2020/12/02 03:22:34;;;;;;;14.40;10.07;;;;;;;;;;5093670;28;20377;-77
2020/12/02 03:25:00;;;;;;;16.48;10.73;;;;;;;;;;5093449;28;20174;-78
2020/12/02 03:27:26;;;;;;;16.38;10.32;;;;;;;;;;5094587;28;20488;-78
2020/12/02 03:29:52;;;;;;;13.82;9.75;;;;;;;;;;5094174;28;20032;-77
2020/12/02 03:32:18;;;;;;;13.25;9.05;;;;;;;;;;5091190;28;20039;-77
2020/12/02 03:34:45;;;;;;;14.23;9.35;;;;;;;;;;5073765;28;20058;-78
2020/12/02 03:37:10;;;;;;;15.13;9.00;;;;;;;;;;5074105;28;20074;-78
2020/12/02 03:39:36;;;;;;;18.02;10.85;;;;;;;;;;5074233;28;20439;-78
2020/12/02 03:42:02;;;;;;;15.38;10.18;;;;;;;;;;5073706;28;20040;-78
2020/12/02 03:44:27;;;;;;;20.02;11.77;;;;;;;;;;5073267;28;20040;-77
2020/12/02 03:46:53;;;;;;;22.75;13.02;;;;;;;;;;5074445;28;20044;-79
2020/12/02 03:49:18;;;;;;;18.38;11.48;;;;;;;;;;5074430;28;20397;-77
2020/12/02 03:51:44;;;;;;;16.08;9.93;;;;;;;;;;5086675;28;20035;-77
2020/12/02 03:54:09;;;;;;;12.65;9.00;;;;;;;;;;5093181;28;20024;-77
2020/12/02 03:56:35;;;;;;;12.40;8.75;;;;;;;;;;5092346;28;20035;-76
2020/12/02 03:59:00;;;;;;;15.70;9.27;;;;;;;;;;5092993;28;20051;-77
2020/12/02 04:01:26;;;;;;;13.23;9.10;;;;;;;;;;5096208;28;20040;-80
2020/12/02 04:03:51;;;;;;;21.30;11.98;;;;;;;;;;5098766;28;20134;-79
2020/12/02 04:06:17;;;;;;;29.15;14.38;;;;;;;;;;5097991;28;20038;-79
2020/12/02 04:08:43;;;;;;;25.55;13.88;;;;;;;;;;5097731;28;20408;-79
2020/12/02 04:11:10;;;;;;;24.08;13.30;;;;;;;;;;5098762;28;20028;-79
2020/12/02 04:13:35;;;;;;;22.42;12.75;;;;;;;;;;5098579;28;20447;-79
2020/12/02 04:16:00;;;;;;;22.60;14.07;;;;;;;;;;5097084;28;20036;-79
2020/12/02 04:18:26;;;;;;;21.08;12.55;;;;;;;;;;5097687;28;20036;-79
2020/12/02 04:20:52;;;;;;;20.08;12.02;;;;;;;;;;5100778;28;20051;-79
2020/12/02 04:23:17;;;;;;;24.23;12.82;;;;;;;;;;5102459;28;20047;-79
2020/12/02 04:25:42;;;;;;;23.15;12.48;;;;;;;;;;5101743;28;20036;-79
2020/12/02 04:28:08;;;;;;;19.65;12.57;;;;;;;;;;5101928;28;20040;-79
2020/12/02 04:30:33;;;;;;;20.58;12.65;;;;;;;;;;5101032;28;20142;-79
2020/12/02 04:32:59;;;;;;;19.85;11.73;;;;;;;;;;5101703;28;20036;-79
2020/12/02 04:35:24;;;;;;;20.40;12.63;;;;;;;;;;5101232;28;20044;-79
2020/12/02 04:37:50;;;;;;;16.67;11.55;;;;;;;;;;5101747;28;20040;-79
2020/12/02 04:40:23;;;;;;;18.10;11.20;;;;;;;;;;5099818;28;20031;-79
2020/12/02 04:42:57;;;;;;;17.25;10.82;;;;;;;;;;5101258;28;20089;-79
2020/12/02 04:45:23;;;;;;;14.45;9.93;;;;;;;;;;5099910;28;20044;-79
2020/12/02 04:47:49;;;;;;;15.07;9.73;;;;;;;;;;5098506;28;20028;-79
2020/12/02 04:50:22;;;;;;;14.10;10.05;;;;;;;;;;5099421;28;20032;-79
2020/12/02 04:53:12;;;;;;;15.10;10.02;;;;;;;;;;5100514;28;20478;-79
2020/12/02 04:55:39;;;;;;;18.38;10.45;;;;;;;;;;5099834;28;20119;-79
2020/12/02 04:58:14;;;;;;;20.02;10.68;;;;;;;;;;5100593;28;20044;-79
2020/12/02 05:00:40;;;;;;;15.37;10.00;;;;;;;;;;5098472;28;20039;-79
2020/12/02 05:03:13;;;;;;;16.60;10.48;;;;;;;;;;5100362;28;20088;-79
2020/12/02 05:05:39;;;;;;;16.88;9.90;;;;;;;;;;5100123;28;20440;-79
2020/12/02 05:08:22;;;;;;;15.23;9.98;;;;;;;;;;5099695;28;20036;-79
2020/12/02 05:10:48;;;;;;;16.17;10.15;;;;;;;;;;5098527;28;20415;-79
2020/12/02 05:13:14;;;;;;;18.25;11.05;;;;;;;;;;5099394;28;20031;-79
2020/12/02 05:15:39;;;;;;;15.98;10.05;;;;;;;;;;5099977;28;20422;-79
2020/12/02 05:18:24;;;;;;;16.45;10.35;;;;;;;;;;5097668;28;20047;-79
2020/12/02 05:21:18;;;;;;;17.42;9.98;;;;;;;;;;5079127;28;20355;-79
2020/12/02 05:23:44;;;;;;;14.60;9.60;;;;;;;;;;5079353;28;20041;-79
2020/12/02 05:26:17;;;;;;;15.50;10.30;;;;;;;;;;5077223;28;20055;-79
2020/12/02 05:28:42;;;;;;;14.43;10.13;;;;;;;;;;5078370;28;20413;-79
2020/12/02 05:31:31;;;;;;;14.20;9.63;;;;;;;;;;5077766;28;20043;-79
2020/12/02 05:34:12;;;;;;;17.00;10.43;;;;;;;;;;5078458;28;20043;-79
2020/12/02 05:36:43;;;;;;;14.88;9.70;;;;;;;;;;5078342;28;20071;-79
2020/12/02 05:39:35;;;;;;;15.07;10.02;;;;;;;;;;5096373;28;20028;-79
2020/12/02 05:42:06;;;;;;;15.70;9.95;;;;;;;;;;5098377;28;20035;-79
2020/12/02 05:44:39;;;;;;;14.20;9.77;;;;;;;;;;5097906;28;20488;-79
2020/12/02 05:47:18;;;;;;;13.80;9.27;;;;;;;;;;5097803;28;20061;-79
2020/12/02 05:49:43;;;;;;;15.55;9.77;;;;;;;;;;5076080;28;20109;-79
2020/12/02 05:52:22;;;;;;;15.98;10.02;;;;;;;;;;5079212;28;20462;-79
2020/12/02 05:54:48;;;;;;;15.65;10.02;;;;;;;;;;5079936;28;20482;-79
2020/12/02 05:57:16;;;;;;;15.48;9.50;;;;;;;;;;5079591;28;20038;-79
2020/12/02 05:59:45;;;;;;;16.45;9.10;;;;;;;;;;5079063;28;20045;-79
2020/12/02 06:02:10;;;;;;;16.55;9.48;;;;;;;;;;5079025;28;20103;-79
2020/12/02 06:04:36;;;;;;;14.10;9.07;;;;;;;;;;5079393;28;20033;-79
2020/12/02 06:07:02;;;;;;;16.92;9.40;;;;;;;;;;5080251;28;20033;-79
2020/12/02 06:09:42;;;;;;;15.75;9.73;;;;;;;;;;5079146;28;20094;-79
2020/12/02 06:12:13;;;;;;;17.02;10.10;;;;;;;;;;5079631;28;20113;-79
2020/12/02 06:14:39;;;;;;;14.80;10.20;;;;;;;;;;5078189;28;20500;-79
2020/12/02 06:17:08;;;;;;;16.67;9.95;;;;;;;;;;5078156;28;20127;-79
2020/12/02 06:19:50;;;;;;;15.50;10.10;;;;;;;;;;5077872;28;20044;-79
2020/12/02 06:22:47;;;;;;;17.88;10.27;;;;;;;;;;5081615;28;20024;-78
2020/12/02 06:25:48;;;;;;;15.98;10.32;;;;;;;;;;5095471;28;20083;-78
2020/12/02 06:28:29;;;;;;;18.50;10.50;;;;;;;;;;5096478;28;20036;-80
2020/12/02 06:31:01;;;;;;;20.45;11.32;;;;;;;;;;5096100;28;20020;-78
2020/12/02 06:33:32;;;;;;;17.90;11.23;;;;;;;;;;5095946;28;20036;-79
2020/12/02 06:36:19;;;;;;;29.10;16.27;;;;;;;;;;5094829;28;20602;-80
2020/12/02 06:38:47;;;;;;;41.45;21.38;;;;;;;;;;5095622;28;20036;-79
2020/12/02 06:41:30;;;;;;;39.13;21.52;;;;;;;;;;5094722;28;20124;-80
2020/12/02 06:44:16;;;;;;;35.33;20.77;;;;;;;;;;5094149;28;21056;-80
2020/12/02 06:46:55;;;;;;;40.20;20.50;;;;;;;;;;5095419;28;20371;-79
2020/12/02 06:49:27;;;;;;;36.88;20.80;;;;;;;;;;5094988;28;20040;-79
2020/12/02 06:51:56;;;;;;;33.83;21.02;;;;;;;;;;5097278;28;20038;-80
2020/12/02 06:54:22;;;;;;;38.00;22.67;;;;;;;;;;5099197;28;20036;-78
2020/12/02 06:56:55;;;;;;;36.75;20.50;;;;;;;;;;5094101;28;20024;-77
2020/12/02 06:59:21;;;;;;;35.40;21.00;;;;;;;;;;5092134;28;20052;-78
2020/12/02 07:01:48;;;;;;;33.53;20.92;;;;;;;;;;5093882;28;20036;-78
2020/12/02 07:04:21;;;;;;;37.20;20.55;;;;;;;;;;5094584;28;20503;-75
2020/12/02 07:06:57;;;;;;;33.50;21.48;;;;;;;;;;5094662;28;20032;-77
2020/12/02 07:09:22;;;;;;;;;;;;;;;;;;5094381;28;20444;-77
2020/12/02 07:12:16;;;;;;;32.70;19.47;;;;;;;;;;5094098;28;19912;-77
2020/12/02 07:14:42;;;;;;;32.45;19.52;;;;;;;;;;5090616;28;20044;-76
2020/12/02 07:17:14;;;;;;;33.72;20.48;;;;;;;;;;5093362;28;20119;-76
2020/12/02 07:19:45;;;;;;;34.40;20.80;;;;;;;;;;5093570;28;20032;-77
2020/12/02 07:22:26;;;;;;;37.22;23.20;;;;;;;;;;5093469;28;20040;-76
2020/12/02 07:24:53;;;;;;;35.72;20.52;;;;;;;;;;5093125;28;20040;-76
2020/12/02 07:27:22;;;;;;;36.15;21.58;;;;;;;;;;5090878;28;20044;-76
2020/12/02 07:30:07;;;;;;;33.88;21.25;;;;;;;;;;5092711;28;20024;-76
2020/12/02 07:32:32;;;;;;;35.38;20.52;;;;;;;;;;5092706;28;20485;-76
2020/12/02 07:35:00;;;;;;;35.47;20.88;;;;;;;;;;5092684;28;20036;-77
2020/12/02 07:37:25;;;;;;;36.38;21.35;;;;;;;;;;5092743;28;20039;-76
2020/12/02 07:39:54;;;;;;;33.70;21.52;;;;;;;;;;5093280;28;20398;-75
2020/12/02 07:42:25;;;;;;;35.35;21.17;;;;;;;;;;5095509;28;20354;-79
2020/12/02 07:45:00;;;;;;;33.15;21.00;;;;;;;;;;5094965;28;20149;-77
2020/12/02 07:47:26;;;;;;;32.53;20.40;;;;;;;;;;5093877;28;20078;-79
2020/12/02 07:50:17;;;;;;;35.92;21.45;;;;;;;;;;5098118;28;20219;-80
2020/12/02 07:52:47;;;;;;;41.60;22.33;;;;;;;;;;5098301;28;20036;-79
2020/12/02 07:55:22;;;;;;;43.20;23.45;;;;;;;;;;5100516;28;20040;-81
2020/12/02 07:57:49;;;;;;;38.05;22.55;;;;;;;;;;5101347;28;20046;-80
2020/12/02 08:00:33;;;;;;;37.83;22.63;;;;;;;;;;5100854;28;20081;-80
2020/12/02 08:02:58;;;;;;;33.40;20.90;;;;;;;;;;5098661;28;20047;-79
2020/12/02 08:05:38;;;;;;;34.55;20.20;;;;;;;;;;5097572;28;20028;-77
2020/12/02 08:08:04;;;;;;;31.75;19.88;;;;;;;;;;5097104;28;20040;-78
2020/12/02 08:10:35;;;;;;;38.60;21.85;;;;;;;;;;5079105;28;20042;-77
2020/12/02 08:13:05;;;;;;;35.60;21.70;;;;;;;;;;5098169;28;20032;-78
2020/12/02 08:15:44;;;;;;;32.90;20.63;;;;;;;;;;5099594;28;20036;-78
2020/12/02 08:18:15;;;;;;;31.42;19.70;;;;;;;;;;5098548;28;20131;-78
2020/12/02 08:20:43;;;;;;;32.55;20.15;;;;;;;;;;5098568;28;20057;-78
2020/12/02 08:23:22;;;;;;;33.10;19.63;;;;;;;;;;5095703;28;20019;-78
2020/12/02 08:26:03;;;;;;;34.63;20.75;;;;;;;;;;5092972;28;20032;-78
2020/12/02 08:28:36;;;;;;;33.50;21.75;;;;;;;;;;5098001;28;20046;-78
2020/12/02 08:31:17;;;;;;;34.85;21.08;;;;;;;;;;5098332;28;20040;-78
2020/12/02 08:34:17;;;;;;;35.47;20.27;;;;;;;;;;5097959;28;20040;-78
2020/12/02 08:36:49;;;;;;;31.98;19.25;;;;;;;;;;5098197;28;20039;-78
2020/12/02 08:39:31;;;;;;;31.17;19.58;;;;;;;;;;5096965;28;20028;-78
2020/12/02 08:41:57;;;;;;;31.17;19.50;;;;;;;;;;5097377;28;20040;-78
2020/12/02 08:44:23;;;;;;;30.83;19.25;;;;;;;;;;5096118;28;20075;-78
2020/12/02 08:46:55;;;;;;;31.75;20.20;;;;;;;;;;5097617;28;20068;-78
2020/12/02 08:49:25;;;;;;;34.58;21.05;;;;;;;;;;5097221;28;20474;-78
2020/12/02 08:51:50;;;;;;;35.15;22.70;;;;;;;;;;5095277;28;20371;-78
2020/12/02 08:54:25;;;;;;;38.08;21.92;;;;;;;;;;5097117;28;20027;-78
2020/12/02 08:56:59;;;;;;;31.02;19.85;;;;;;;;;;5097533;28;20084;-77
2020/12/02 08:59:24;;;;;;;30.17;19.55;;;;;;;;;;5096038;28;20090;-78
2020/12/02 09:01:50;;;;;;;35.50;21.90;;;;;;;;;;5097219;28;20040;-78
2020/12/02 09:04:15;;;;;;;42.72;23.38;;;;;;;;;;5095992;28;20382;-78
2020/12/02 09:06:40;;;;;;;35.00;21.05;;;;;;;;;;5095918;28;20051;-78
2020/12/02 09:09:06;;;;;;;39.45;23.48;;;;;;;;;;5097217;28;20035;-78
2020/12/02 09:11:34;;;;;;;36.58;22.60;;;;;;;;;;5096406;28;20040;-78
2020/12/02 09:14:01;;;;;;;39.83;24.45;;;;;;;;;;5095595;28;20404;-78
2020/12/02 09:16:35;;;;;;;46.72;26.33;;;;;;;;;;5097175;28;20035;-78
2020/12/02 09:19:03;;;;;;;44.55;25.77;;;;;;;;;;5095795;28;20046;-78
2020/12/02 09:21:29;;;;;;;45.45;23.98;;;;;;;;;;5097214;28;20035;-78
2020/12/02 09:23:56;;;;;;;42.50;23.40;;;;;;;;;;5097330;28;20071;-78
2020/12/02 09:26:24;;;;;;;41.78;23.67;;;;;;;;;;5096599;28;20054;-78
2020/12/02 09:28:50;;;;;;;42.22;24.30;;;;;;;;;;5097272;28;20047;-78
2020/12/02 09:31:17;;;;;;;45.15;27.00;;;;;;;;;;5097192;28;20036;-78
2020/12/02 09:33:43;;;;;;;41.40;23.75;;;;;;;;;;5094895;28;20076;-78
2020/12/02 09:36:08;;;;;;;37.60;22.63;;;;;;;;;;5097668;28;20041;-78
2020/12/02 09:38:34;;;;;;;36.60;21.30;;;;;;;;;;5096888;28;20040;-78
2020/12/02 09:41:28;;;;;;;29.98;19.58;;;;;;;;;;5095342;28;20043;-78
2020/12/02 09:44:29;;;;;;;31.80;18.08;;;;;;;;;;5095053;28;20521;-78
2020/12/02 09:47:00;;;;;;;27.58;17.08;;;;;;;;;;5095990;28;20115;-78
2020/12/02 09:49:26;;;;;;;28.08;16.77;;;;;;;;;;5076279;28;20123;-78
2020/12/02 09:52:08;;;;;;;28.85;18.05;;;;;;;;;;5076291;28;20478;-78
2020/12/02 09:54:40;;;;;;;24.95;15.57;;;;;;;;;;5087625;28;20036;-78
2020/12/02 09:57:14;;;;;;;30.52;18.98;;;;;;;;;;5095999;28;20070;-78
2020/12/02 09:59:40;;;;;;;30.60;19.10;;;;;;;;;;5095971;28;20052;-78
2020/12/02 10:02:23;;;;;;;37.80;21.98;;;;;;;;;;5094972;28;20020;-78
2020/12/02 10:05:08;;;;;;;29.90;18.33;;;;;;;;;;5094878;28;20039;-78
2020/12/02 10:07:52;;;;;;;30.27;18.08;;;;;;;;;;5096571;28;20036;-78
2020/12/02 10:10:38;;;;;;;30.58;18.65;;;;;;;;;;5096289;28;20059;-78
2020/12/02 10:13:08;;;;;;;29.10;17.63;;;;;;;;;;5096809;28;20078;-79
2020/12/02 10:15:46;;;;;;;29.08;17.52;;;;;;;;;;5096008;28;20473;-79
2020/12/02 10:18:22;;;;;;;34.13;19.30;;;;;;;;;;5094873;28;20039;-78
2020/12/02 10:20:54;;;;;;;29.80;19.05;;;;;;;;;;5096078;28;20097;-78
2020/12/02 10:23:42;;;;;;;31.83;18.73;;;;;;;;;;5077566;28;20447;-78
2020/12/02 10:26:35;;;;;;;29.35;18.67;;;;;;;;;;5095938;28;20039;-78
2020/12/02 10:29:11;;;;;;;26.73;16.35;;;;;;;;;;5096005;28;20040;-78
2020/12/02 10:31:42;;;;;;;23.13;15.20;;;;;;;;;;5095413;28;20066;-78
2020/12/02 10:34:13;;;;;;;23.38;14.18;;;;;;;;;;5094552;28;20042;-78
2020/12/02 10:36:50;;;;;;;25.15;14.95;;;;;;;;;;5095722;28;20070;-78
2020/12/02 10:39:21;;;;;;;;;;;;;;;;;;5095289;28;20474;-78
2020/12/02 10:42:08;;;;;;;17.55;11.75;;;;;;;;;;5095415;28;20398;-78
2020/12/02 10:44:58;;;;;;;21.52;13.02;;;;;;;;;;5095377;28;20504;-77
2020/12/02 10:47:51;;;;;;;21.52;11.95;;;;;;;;;;5095161;28;20032;-78
2020/12/02 10:50:18;;;;;;;19.27;11.77;;;;;;;;;;5094917;28;20032;-78
2020/12/02 10:52:49;;;;;;;17.73;11.02;;;;;;;;;;5095374;28;20048;-77
2020/12/02 10:55:18;;;;;;;16.17;10.40;;;;;;;;;;5094996;28;20032;-77
2020/12/02 10:57:43;;;;;;;14.70;9.50;;;;;;;;;;5095248;28;20530;-78
2020/12/02 11:00:13;;;;;;;14.07;8.45;;;;;;;;;;5094881;28;20036;-77
2020/12/02 11:02:39;;;;;;;10.27;7.53;;;;;;;;;;5094876;28;20081;-77
2020/12/02 11:05:06;;;;;;;13.43;9.45;;;;;;;;;;5094643;28;20032;-78
2020/12/02 11:07:56;;;;;;;14.82;9.52;;;;;;;;;;5094297;28;20039;-78
2020/12/02 11:10:35;;;;;;;12.85;8.65;;;;;;;;;;5094942;28;20469;-78
2020/12/02 11:13:12;;;;;;;12.25;8.55;;;;;;;;;;5094768;28;20080;-78
2020/12/02 11:15:45;;;;;;;18.83;11.05;;;;;;;;;;5093294;28;20040;-78
2020/12/02 11:18:48;;;;;;;19.83;13.35;;;;;;;;;;5093707;28;20040;-78
2020/12/02 11:21:32;;;;;;;13.43;8.93;;;;;;;;;;5094571;28;20039;-77
2020/12/02 11:24:10;;;;;;;13.10;9.23;;;;;;;;;;5093552;28;20070;-77
2020/12/02 11:26:38;;;;;;;13.10;9.15;;;;;;;;;;5094470;28;20040;-77
2020/12/02 11:29:08;;;;;;;13.57;9.43;;;;;;;;;;5097274;28;20036;-77
2020/12/02 11:31:58;;;;;;;14.52;8.00;;;;;;;;;;5098270;28;20092;-78
2020/12/02 11:34:47;;;;;;;13.75;9.07;;;;;;;;;;5098569;28;20473;-77
2020/12/02 11:37:45;;;;;;;35.42;19.90;;;;;;;;;;5096338;28;20062;-77
2020/12/02 11:40:13;;;;;;;46.92;24.73;;;;;;;;;;5098103;28;20036;-78
2020/12/02 11:42:57;;;;;;;35.95;20.42;;;;;;;;;;5096984;28;20040;-77
2020/12/02 11:45:40;;;;;;;27.60;14.80;;;;;;;;;;5098214;28;20401;-77
2020/12/02 11:48:22;;;;;;;15.73;10.88;;;;;;;;;;5097170;28;20050;-77
2020/12/02 11:51:05;;;;;;;16.58;10.45;;;;;;;;;;5097823;28;20107;-78
2020/12/02 11:53:57;;;;;;;16.90;11.18;;;;;;;;;;5097551;28;20036;-78
2020/12/02 11:56:43;;;;;;;15.43;10.38;;;;;;;;;;5097733;28;20079;-77
2020/12/02 11:59:16;;;;;;;16.30;10.27;;;;;;;;;;5097673;28;20043;-77
2020/12/02 12:01:50;;;;;;;14.50;10.43;;;;;;;;;;5097920;28;20505;-78
2020/12/02 12:04:34;;;;;;;16.25;11.27;;;;;;;;;;5096900;28;20043;-77
2020/12/02 12:07:22;;;;;;;14.00;10.75;;;;;;;;;;5096704;28;20040;-77
2020/12/02 12:10:03;;;;;;;14.75;10.32;;;;;;;;;;5086365;28;20044;-78
2020/12/02 12:12:43;;;;;;;16.20;11.55;;;;;;;;;;5097557;28;20459;-77
2020/12/02 12:15:23;;;;;;;17.00;11.48;;;;;;;;;;5097581;28;20032;-77
2020/12/02 12:17:52;;;;;;;15.85;11.32;;;;;;;;;;5097681;28;20537;-77
2020/12/02 12:20:29;;;;;;;16.80;11.40;;;;;;;;;;5096204;28;20486;-77
2020/12/02 12:23:13;;;;;;;16.63;11.25;;;;;;;;;;5097166;28;20107;-77
2020/12/02 12:25:39;;;;;;;17.58;11.77;;;;;;;;;;5097133;28;20032;-77
2020/12/02 12:28:13;;;;;;;14.88;10.88;;;;;;;;;;5097005;28;20036;-77
2020/12/02 12:30:38;;;;;;;17.15;11.75;;;;;;;;;;5097283;28;20040;-77
2020/12/02 12:33:15;;;;;;;17.15;12.35;;;;;;;;;;5096908;28;20028;-77
2020/12/02 12:35:46;;;;;;;16.13;11.90;;;;;;;;;;5096661;28;20071;-77
2020/12/02 12:38:27;;;;;;;18.98;12.45;;;;;;;;;;5096714;28;20054;-77
2020/12/02 12:41:15;;;;;;;18.13;12.00;;;;;;;;;;5094064;28;20040;-77
2020/12/02 12:43:56;;;;;;;15.13;11.70;;;;;;;;;;5096445;28;20044;-77
2020/12/02 12:46:34;;;;;;;19.20;12.07;;;;;;;;;;5095261;28;20088;-78
2020/12/02 12:49:03;;;;;;;20.77;13.70;;;;;;;;;;5095032;28;20040;-77
2020/12/02 12:51:30;;;;;;;23.75;13.50;;;;;;;;;;5094787;28;20109;-78
2020/12/02 12:53:58;;;;;;;17.38;12.68;;;;;;;;;;5095014;28;20040;-78
2020/12/02 12:56:27;;;;;;;17.63;12.10;;;;;;;;;;5095950;28;20476;-77
2020/12/02 12:58:52;;;;;;;18.00;12.68;;;;;;;;;;5096191;28;20062;-77
2020/12/02 13:01:18;;;;;;;19.95;13.63;;;;;;;;;;5096247;28;20032;-77
2020/12/02 13:03:44;;;;;;;23.02;15.10;;;;;;;;;;5096146;28;20385;-77
2020/12/02 13:06:30;;;;;;;20.48;14.20;;;;;;;;;;5096183;28;20504;-77
2020/12/02 13:09:22;;;;;;;17.70;11.60;;;;;;;;;;5095535;28;20032;-77
2020/12/02 13:12:19;;;;;;;20.63;13.02;;;;;;;;;;5075235;28;20437;-78
2020/12/02 13:15:01;;;;;;;18.63;12.52;;;;;;;;;;5075011;28;20111;-78
2020/12/02 13:18:01;;;;;;;19.45;12.82;;;;;;;;;;5074931;28;20040;-78
2020/12/02 13:20:36;;;;;;;17.75;11.65;;;;;;;;;;5074932;28;20068;-77
2020/12/02 13:23:13;;;;;;;19.65;12.50;;;;;;;;;;5074903;28;20033;-78
2020/12/02 13:25:52;;;;;;;18.65;12.48;;;;;;;;;;5074846;28;20048;-77
2020/12/02 13:28:43;;;;;;;15.57;11.07;;;;;;;;;;5084747;28;20495;-78
2020/12/02 13:31:15;;;;;;;21.65;12.90;;;;;;;;;;5093755;28;20119;-78
2020/12/02 13:33:41;;;;;;;18.17;12.68;;;;;;;;;;5094925;28;20043;-78
2020/12/02 13:36:24;;;;;;;16.88;11.55;;;;;;;;;;5094980;28;20036;-78
2020/12/02 13:38:51;;;;;;;18.95;13.00;;;;;;;;;;5094800;28;20036;-78
2020/12/02 13:41:22;;;;;;;22.95;14.68;;;;;;;;;;5094569;28;20032;-77
2020/12/02 13:43:52;;;;;;;21.98;14.18;;;;;;;;;;5094641;28;20035;-77
2020/12/02 13:46:18;;;;;;;21.08;13.45;;;;;;;;;;5094641;28;20169;-77
2020/12/02 13:48:44;;;;;;;19.83;12.55;;;;;;;;;;5093477;28;20035;-77
2020/12/02 13:51:25;;;;;;;16.65;11.68;;;;;;;;;;5094302;28;20439;-78
2020/12/02 13:53:55;;;;;;;19.40;12.55;;;;;;;;;;5094520;28;20112;-77
2020/12/02 13:56:33;;;;;;;21.55;13.88;;;;;;;;;;5092307;28;20040;-77
2020/12/02 13:59:13;;;;;;;15.65;11.13;;;;;;;;;;5092947;28;20193;-77
2020/12/02 14:01:42;;;;;;;16.88;12.55;;;;;;;;;;5094472;28;20050;-77
2020/12/02 14:04:52;;;;;;;18.10;12.07;;;;;;;;;;5094306;28;20035;-77
2020/12/02 14:07:19;;;;;;;16.40;10.32;;;;;;;;;;5094298;28;20425;-77
2020/12/02 14:09:49;;;;;;;13.73;9.57;;;;;;;;;;5094223;28;20040;-77
2020/12/02 14:12:26;;;;;;;15.98;10.27;;;;;;;;;;5094360;28;20050;-77
2020/12/02 14:14:53;;;;;;;16.52;11.68;;;;;;;;;;5094120;28;20040;-77
2020/12/02 14:17:20;;;;;;;16.55;10.52;;;;;;;;;;5094049;28;20082;-77
2020/12/02 14:19:46;;;;;;;16.88;10.98;;;;;;;;;;5093014;28;20127;-77
2020/12/02 14:22:31;;;;;;;18.52;12.25;;;;;;;;;;5093923;28;20036;-77
2020/12/02 14:25:03;;;;;;;16.75;10.27;;;;;;;;;;5092585;28;20032;-77
2020/12/02 14:27:33;;;;;;;14.52;9.57;;;;;;;;;;5093996;28;20043;-77
2020/12/02 14:30:00;;;;;;;16.27;11.23;;;;;;;;;;5093852;28;20082;-78
2020/12/02 14:32:27;;;;;;;18.73;11.05;;;;;;;;;;5093710;28;20043;-77
2020/12/02 14:34:53;;;;;;;15.85;11.02;;;;;;;;;;5093766;28;20043;-77
2020/12/02 14:37:19;;;;;;;15.73;10.80;;;;;;;;;;5093744;28;20448;-77
2020/12/02 14:39:45;;;;;;;16.75;11.13;;;;;;;;;;5092755;28;20050;-77
2020/12/02 14:42:13;;;;;;;14.98;10.32;;;;;;;;;;5093661;28;20477;-77
2020/12/02 14:44:41;;;;;;;16.73;11.35;;;;;;;;;;5093457;28;20138;-77
2020/12/02 14:47:08;;;;;;;16.02;11.55;;;;;;;;;;5093390;28;20122;-77
2020/12/02 14:49:33;;;;;;;16.88;11.43;;;;;;;;;;5092568;28;20061;-77